createdAt,value
2018-08-09T00:01:07.428Z,7.77
2018-08-09T00:03:36.171Z,7.97
2018-08-09T00:06:04.998Z,8.83
2018-08-09T00:08:33.768Z,8.20
2018-08-09T00:11:02.516Z,7.70
2018-08-09T00:13:31.150Z,8.97
2018-08-09T00:15:59.926Z,8.13
2018-08-09T00:18:28.681Z,8.60
2018-08-09T00:20:58.108Z,8.33
2018-08-09T00:23:27.039Z,8.27
2018-08-09T00:25:55.777Z,8.87
2018-08-09T00:28:24.475Z,8.17
2018-08-09T00:30:53.306Z,9.50
2018-08-09T00:33:22.034Z,9.43
2018-08-09T00:35:50.889Z,8.53
2018-08-09T00:38:19.590Z,8.50
2018-08-09T00:40:48.322Z,7.73
2018-08-09T00:43:17.146Z,7.90
2018-08-09T00:45:46.009Z,8.90
2018-08-09T00:48:15.029Z,8.30
2018-08-09T00:50:43.778Z,9.37
2018-08-09T00:53:12.489Z,8.07
2018-08-09T00:55:41.403Z,8.73
2018-08-09T00:58:10.192Z,8.40
2018-08-09T01:00:38.926Z,9.87
2018-08-09T01:03:07.615Z,8.33
2018-08-09T01:05:36.474Z,9.10
2018-08-09T01:08:05.117Z,8.40
2018-08-09T01:10:33.773Z,9.03
2018-08-09T01:13:02.401Z,9.20
2018-08-09T01:15:31.081Z,9.67
2018-08-09T01:17:59.833Z,7.60
2018-08-09T01:20:28.471Z,9.60
2018-08-09T01:22:57.457Z,8.63
2018-08-09T01:25:26.617Z,8.47
2018-08-09T01:27:55.382Z,10.03
2018-08-09T01:30:24.662Z,8.93
2018-08-09T01:32:53.548Z,9.30
2018-08-09T01:35:22.194Z,10.60
2018-08-09T01:37:50.894Z,9.97
2018-08-09T01:40:19.555Z,10.03
2018-08-09T01:42:59.477Z,8.30
2018-08-09T01:45:28.110Z,9.13
2018-08-09T01:47:56.852Z,8.23
2018-08-09T01:50:25.687Z,8.53
2018-08-09T01:52:54.377Z,7.57
2018-08-09T01:55:23.302Z,8.57
2018-08-09T01:57:52.098Z,8.17
2018-08-09T02:00:20.931Z,8.50
2018-08-09T02:02:49.654Z,8.67
2018-08-09T02:05:18.322Z,9.70
2018-08-09T02:07:47.241Z,9.10
2018-08-09T02:10:16.082Z,9.83
2018-08-09T02:12:44.881Z,9.20
2018-08-09T02:15:13.647Z,8.13
2018-08-09T02:17:42.300Z,8.67
2018-08-09T02:20:11.284Z,9.00
2018-08-09T02:22:39.922Z,8.40
2018-08-09T02:25:08.605Z,10.30
2018-08-09T02:27:37.250Z,8.27
2018-08-09T02:30:07.370Z,8.50
2018-08-09T02:32:36.118Z,7.93
2018-08-09T02:35:05.122Z,9.20
2018-08-09T02:37:33.813Z,8.40
2018-08-09T02:40:02.730Z,9.87
2018-08-09T02:42:31.577Z,8.90
2018-08-09T02:45:00.348Z,9.00
2018-08-09T02:47:29.518Z,9.40
2018-08-09T02:49:58.518Z,8.63
2018-08-09T02:52:27.983Z,9.03
2018-08-09T02:54:57.493Z,8.77
2018-08-09T02:57:26.969Z,8.47
2018-08-09T02:59:56.514Z,9.30
2018-08-09T03:02:25.218Z,9.80
2018-08-09T03:04:54.190Z,8.67
2018-08-09T03:07:23.004Z,8.40
2018-08-09T03:09:52.227Z,8.63
2018-08-09T03:12:21.117Z,8.17
2018-08-09T03:14:50.090Z,9.10
2018-08-09T03:17:18.790Z,8.30
2018-08-09T03:19:47.506Z,7.70
2018-08-09T03:22:16.546Z,8.30
2018-08-09T03:24:45.363Z,8.70
2018-08-09T03:27:14.197Z,8.10
2018-08-09T03:29:43.128Z,8.83
2018-08-09T03:32:11.881Z,8.63
2018-08-09T03:34:40.570Z,8.97
2018-08-09T03:37:09.586Z,7.93
2018-08-09T03:39:38.361Z,8.13
2018-08-09T03:42:07.154Z,7.93
2018-08-09T03:44:35.954Z,8.70
2018-08-09T03:47:04.713Z,7.80
2018-08-09T03:49:33.483Z,8.30
2018-08-09T03:52:02.194Z,8.60
2018-08-09T03:54:30.867Z,8.13
2018-08-09T03:56:59.674Z,9.60
2018-08-09T03:59:28.410Z,9.60
2018-08-09T04:01:57.289Z,8.50
2018-08-09T04:04:25.979Z,8.47
2018-08-09T04:06:54.981Z,8.70
2018-08-09T04:09:23.725Z,9.07
2018-08-09T04:11:52.468Z,8.80
2018-08-09T04:14:21.430Z,8.93
2018-08-09T04:16:50.095Z,9.00
2018-08-09T04:19:18.759Z,8.90
2018-08-09T04:21:47.500Z,8.43
2018-08-09T04:24:16.365Z,9.10
2018-08-09T04:26:45.172Z,9.40
2018-08-09T04:29:13.909Z,9.23
2018-08-09T04:31:42.738Z,9.60
2018-08-09T04:34:11.434Z,10.00
2018-08-09T04:36:40.077Z,9.57
2018-08-09T04:39:09.969Z,9.67
2018-08-09T04:41:38.684Z,8.77
2018-08-09T04:44:07.709Z,9.67
2018-08-09T04:46:36.482Z,8.37
2018-08-09T04:49:05.374Z,8.00
2018-08-09T04:51:34.118Z,9.10
2018-08-09T04:54:02.846Z,7.67
2018-08-09T04:56:31.672Z,9.10
2018-08-09T04:59:00.458Z,9.83
2018-08-09T05:01:29.198Z,9.80
2018-08-09T05:03:57.910Z,8.63
2018-08-09T05:06:26.635Z,10.63
2018-08-09T05:08:55.403Z,9.50
2018-08-09T05:11:24.202Z,8.90
2018-08-09T05:13:52.995Z,8.60
2018-08-09T05:16:21.773Z,8.50
2018-08-09T05:18:50.590Z,7.50
2018-08-09T05:21:19.522Z,9.30
2018-08-09T05:23:48.462Z,8.63
2018-08-09T05:26:17.193Z,7.90
2018-08-09T05:28:46.028Z,8.97
2018-08-09T05:31:14.769Z,8.70
2018-08-09T05:33:43.518Z,9.57
2018-08-09T05:36:12.281Z,7.83
2018-08-09T05:38:41.038Z,8.83
2018-08-09T05:41:10.077Z,8.33
2018-08-09T05:43:38.733Z,8.40
2018-08-09T05:46:07.662Z,8.20
2018-08-09T05:48:36.434Z,8.13
2018-08-09T05:51:05.240Z,7.60
2018-08-09T05:53:34.222Z,6.80
2018-08-09T05:56:02.982Z,7.80
2018-08-09T09:36:51.053Z,4.10
2018-08-09T09:39:19.807Z,4.30
2018-08-09T09:41:48.636Z,3.57
2018-08-09T09:44:17.466Z,4.20
2018-08-09T09:46:46.286Z,4.37
2018-08-09T09:49:15.261Z,3.43
2018-08-09T09:51:43.999Z,3.90
2018-08-09T09:54:12.949Z,3.20
2018-08-09T09:56:41.674Z,3.37
2018-08-09T09:59:10.482Z,3.10
2018-08-09T10:01:39.349Z,3.83
2018-08-09T10:04:13.169Z,3.20
2018-08-09T10:06:42.261Z,2.93
2018-08-09T10:09:12.201Z,3.67
2018-08-09T10:11:41.240Z,3.30
2018-08-09T10:14:10.008Z,2.93
2018-08-09T10:16:38.784Z,3.70
2018-08-09T10:19:07.704Z,3.37
2018-08-09T10:21:37.045Z,2.93
2018-08-09T10:24:05.852Z,3.13
2018-08-09T10:26:34.893Z,3.03
2018-08-09T10:29:03.703Z,3.20
2018-08-09T10:31:33.863Z,3.13
2018-08-09T10:34:02.905Z,3.10
2018-08-09T10:36:31.796Z,3.10
2018-08-09T10:39:00.748Z,3.17
2018-08-09T10:41:29.563Z,3.03
2018-08-09T10:43:58.211Z,2.40
2018-08-09T10:46:27.021Z,2.93
2018-08-09T10:48:55.791Z,2.93
2018-08-09T10:51:25.022Z,3.00
2018-08-09T10:53:53.876Z,2.90
2018-08-09T10:56:24.901Z,2.70
2018-08-09T10:58:53.687Z,3.10
2018-08-09T11:01:22.523Z,2.40
2018-08-09T11:03:51.201Z,3.00
2018-08-09T11:06:20.157Z,2.60
2018-08-09T11:08:48.951Z,3.10
2018-08-09T11:11:17.652Z,2.70
2018-08-09T11:13:46.741Z,3.57
2018-08-09T11:16:16.299Z,2.87
2018-08-09T11:18:45.777Z,2.80
2018-08-09T11:21:15.105Z,3.50
2018-08-09T11:23:43.935Z,2.40
2018-08-09T11:26:12.648Z,3.20
2018-08-09T11:28:41.409Z,2.90
2018-08-09T11:31:10.468Z,3.33
2018-08-09T11:33:39.446Z,2.67
2018-08-09T11:36:08.171Z,2.57
2018-08-09T11:38:36.901Z,2.83
2018-08-09T11:41:05.593Z,3.13
2018-08-09T11:43:34.361Z,2.60
2018-08-09T11:46:03.293Z,3.30
2018-08-09T11:48:32.477Z,2.77
2018-08-09T11:51:01.397Z,3.43
2018-08-09T11:53:30.085Z,3.23
2018-08-09T11:55:58.843Z,3.50
2018-08-09T11:58:27.857Z,3.33
2018-08-09T12:00:56.497Z,3.30
2018-08-09T12:03:25.357Z,3.47
2018-08-09T12:05:54.560Z,3.13
2018-08-09T12:08:23.432Z,3.50
2018-08-09T12:10:52.311Z,2.53
2018-08-09T12:13:21.302Z,3.30
2018-08-09T12:15:51.251Z,2.97
2018-08-09T12:18:20.127Z,2.83
2018-08-09T12:20:49.009Z,3.00
2018-08-09T12:23:17.753Z,2.93
2018-08-09T12:25:46.725Z,3.37
2018-08-09T12:28:15.469Z,3.27
2018-08-09T12:30:44.173Z,3.13
2018-08-09T12:33:13.151Z,2.80
2018-08-09T12:35:42.665Z,2.70
2018-08-09T12:38:11.442Z,2.70
2018-08-09T12:40:40.194Z,2.70
2018-08-09T12:43:08.930Z,2.57
2018-08-09T12:45:37.981Z,2.20
2018-08-09T12:48:07.272Z,2.10
2018-08-09T12:50:36.443Z,2.90
2018-08-09T12:53:05.861Z,2.40
2018-08-09T12:55:34.801Z,2.13
2018-08-09T12:58:03.622Z,2.80
2018-08-09T13:00:32.479Z,2.40
2018-08-09T13:03:01.158Z,2.10
2018-08-09T13:05:30.067Z,2.60
2018-08-09T13:07:58.945Z,3.80
2018-08-09T13:10:27.657Z,2.20
2018-08-09T13:12:56.473Z,2.57
2018-08-09T13:15:26.382Z,2.50
2018-08-09T13:17:55.239Z,2.53
2018-08-09T13:20:24.160Z,1.90
2018-08-09T13:22:52.889Z,2.43
2018-08-09T13:25:21.749Z,2.37
2018-08-09T13:27:50.604Z,2.50
2018-08-09T13:30:19.381Z,2.30
2018-08-09T13:32:48.065Z,2.50
2018-08-09T13:35:16.799Z,2.30
2018-08-09T13:37:45.686Z,2.20
2018-08-09T13:40:14.480Z,2.00
2018-08-09T13:42:43.237Z,2.10
2018-08-09T13:45:15.023Z,2.17
2018-08-09T13:47:43.978Z,1.90
2018-08-09T13:50:13.273Z,2.30
2018-08-09T13:52:42.748Z,2.40
2018-08-09T13:55:13.806Z,2.10
2018-08-09T13:57:42.567Z,2.20
2018-08-09T14:00:12.941Z,2.40
2018-08-09T14:02:43.585Z,1.87
2018-08-09T14:05:12.504Z,2.23
2018-08-09T14:07:43.063Z,2.13
2018-08-09T14:10:12.341Z,2.13
2018-08-09T14:12:42.141Z,2.03
2018-08-09T14:15:12.518Z,2.57
2018-08-09T14:17:41.221Z,2.50
2018-08-09T14:20:15.675Z,2.73
2018-08-09T14:22:44.462Z,2.90
2018-08-09T14:25:13.762Z,2.30
2018-08-09T14:27:42.773Z,2.43
2018-08-09T14:30:13.703Z,3.03
2018-08-09T14:32:43.125Z,2.43
2018-08-09T14:35:13.581Z,2.40
2018-08-09T14:37:42.974Z,2.60
2018-08-09T14:40:12.531Z,2.90
2018-08-09T14:42:41.398Z,3.27
2018-08-09T14:45:15.829Z,2.40
2018-08-09T14:47:44.824Z,2.93
2018-08-09T14:50:13.789Z,3.10
2018-08-09T14:52:43.023Z,2.67
2018-08-09T14:55:13.380Z,2.60
2018-08-09T14:57:43.088Z,2.57
2018-08-09T15:00:16.485Z,2.67
2018-08-09T15:02:46.294Z,2.93
2018-08-09T15:05:16.521Z,2.83
2018-08-09T15:07:46.098Z,2.80
2018-08-09T15:10:16.278Z,2.60
2018-08-09T15:12:45.455Z,2.77
2018-08-09T15:15:14.481Z,3.00
2018-08-09T15:17:43.276Z,2.60
2018-08-09T15:20:14.184Z,3.83
2018-08-09T15:22:43.697Z,3.30
2018-08-09T15:25:12.927Z,3.20
2018-08-09T15:27:41.722Z,3.00
2018-08-09T15:30:16.690Z,3.13
2018-08-09T15:32:45.563Z,6.30
2018-08-09T15:35:15.201Z,3.60
2018-08-09T15:37:44.275Z,3.93
2018-08-09T15:40:13.664Z,3.67
2018-08-09T15:42:42.576Z,3.93
2018-08-09T15:45:13.391Z,4.57
2018-08-09T15:47:43.084Z,4.90
2018-08-09T15:50:17.445Z,6.50
2018-08-09T15:52:46.864Z,5.70
2018-08-09T15:55:16.917Z,4.43
2018-08-09T15:57:45.996Z,4.40
2018-08-09T16:00:18.842Z,4.47
2018-08-09T16:02:47.856Z,4.40
2018-08-09T16:05:16.913Z,4.97
2018-08-09T16:07:46.134Z,3.73
2018-08-09T16:10:16.092Z,3.70
2018-08-09T16:12:45.899Z,4.30
2018-08-09T16:15:17.305Z,3.60
2018-08-09T16:17:47.452Z,5.63
2018-08-09T16:20:16.450Z,3.17
2018-08-09T16:22:46.125Z,3.97
2018-08-09T16:25:18.325Z,2.93
2018-08-09T16:27:47.709Z,3.30
2018-08-09T16:30:23.150Z,3.30
2018-08-09T16:32:52.158Z,3.10
2018-08-09T16:35:21.374Z,3.00
2018-08-09T16:37:50.517Z,3.40
2018-08-09T16:40:21.630Z,3.60
2018-08-09T16:42:50.377Z,3.27
2018-08-09T16:45:20.431Z,2.67
2018-08-09T16:47:49.913Z,2.60
2018-08-09T16:50:20.871Z,3.43
2018-08-09T16:52:50.771Z,2.53
2018-08-09T16:55:20.930Z,2.73
2018-08-09T16:57:49.689Z,3.73
2018-08-09T17:00:20.929Z,3.63
2018-08-09T17:02:50.144Z,3.63
2018-08-09T17:05:21.386Z,2.60
2018-08-09T17:07:50.749Z,2.90
2018-08-09T17:10:21.712Z,3.30
2018-08-09T17:12:50.625Z,2.73
2018-08-09T17:15:21.677Z,2.27
2018-08-09T17:17:50.755Z,2.60
2018-08-09T17:20:22.979Z,2.93
2018-08-09T17:22:51.819Z,2.70
2018-08-09T17:25:20.791Z,2.60
2018-08-09T17:27:50.177Z,3.10
2018-08-09T17:30:21.933Z,3.13
2018-08-09T17:32:50.749Z,3.60
2018-08-09T17:35:20.268Z,3.87
